Orbital elements of CZ-4 DEB
| Launched | 20 October 2003 |
| Flight ended | – |
| Launch site | Taiyuan Space Center, PRC |
| Owner | People's Republic of China |
| NORAD ID | 35379 |
| Date fetched |
Epoch osculation |
Inc. [°] |
Ecc. | RA asc node [hr] |
Arg Peri. [°] |
Mean anom [°] |
Mean motion [rev/day] |
Abs. mag |
| Date fetched |
Epoch osculation |
Inc. [°] |
Ecc. | RA asc node [hr] |
Arg Peri. [°] |
Mean anom [°] |
Mean motion [rev/day] |
Abs. mag |
| 2026 May 03 17:57 | 2026 Apr 28 12:35:17 | 98.7837 | 0.01739 | 21.2522 | 24.0469 | 4.1279 | 13.91141 | – |
| 2026 May 02 17:57 | 2026 Apr 28 12:35:17 | 98.7837 | 0.01739 | 21.2522 | 24.0469 | 4.1279 | 13.91141 | – |
| 2026 May 01 17:56 | 2026 Apr 28 12:35:17 | 98.7837 | 0.01739 | 21.2522 | 24.0469 | 4.1279 | 13.91141 | – |
| 2026 Apr 30 17:56 | 2026 Apr 28 12:35:17 | 98.7837 | 0.01739 | 21.2522 | 24.0469 | 4.1279 | 13.91141 | – |
| 2026 Apr 29 17:57 | 2026 Apr 24 11:56:11 | 98.7844 | 0.01740 | 20.9981 | 35.0530 | 4.1279 | 13.91141 | – |
| 2026 Apr 28 17:56 | 2026 Apr 24 11:56:11 | 98.7844 | 0.01740 | 20.9981 | 35.0530 | 4.1279 | 13.91141 | – |
| 2026 Apr 27 17:58 | 2026 Apr 24 11:56:11 | 98.7844 | 0.01740 | 20.9981 | 35.0530 | 4.1279 | 13.91141 | – |
| 2026 Apr 26 17:58 | 2026 Apr 24 11:56:11 | 98.7844 | 0.01740 | 20.9981 | 35.0530 | 4.1279 | 13.91141 | – |
| 2026 Apr 25 17:58 | 2026 Apr 24 11:56:11 | 98.7844 | 0.01740 | 20.9981 | 35.0530 | 4.1279 | 13.91141 | – |
| 2026 Apr 24 17:59 | 2026 Apr 24 11:56:11 | 98.7844 | 0.01740 | 20.9981 | 35.0530 | 4.1279 | 13.91141 | – |
| 2026 Apr 23 17:57 | 2026 Apr 19 12:48:57 | 98.7847 | 0.01742 | 20.6848 | 48.6096 | 4.1279 | 13.91141 | – |
| 2026 Apr 22 17:57 | 2026 Apr 19 12:48:57 | 98.7847 | 0.01742 | 20.6848 | 48.6096 | 4.1279 | 13.91141 | – |
| 2026 Apr 21 17:57 | 2026 Apr 19 12:48:57 | 98.7847 | 0.01742 | 20.6848 | 48.6096 | 4.1279 | 13.91141 | – |
| 2026 Apr 20 17:57 | 2026 Apr 19 12:48:57 | 98.7847 | 0.01742 | 20.6848 | 48.6096 | 4.1279 | 13.91141 | – |
| 2026 Apr 19 17:58 | 2026 Apr 19 12:48:57 | 98.7847 | 0.01742 | 20.6848 | 48.6096 | 4.1279 | 13.91141 | – |
| 2026 Apr 18 17:56 | 2026 Apr 10 19:54:08 | 98.7858 | 0.01744 | 20.1354 | 72.3262 | 4.1279 | 13.91141 | – |
| 2026 Apr 16 17:57 | 2026 Apr 10 19:54:08 | 98.7858 | 0.01744 | 20.1354 | 72.3262 | 4.1279 | 13.91141 | – |
| 2026 Apr 14 17:57 | 2026 Apr 10 19:54:08 | 98.7858 | 0.01744 | 20.1354 | 72.3262 | 4.1279 | 13.91141 | – |
| 2026 Apr 13 17:57 | 2026 Apr 10 19:54:08 | 98.7858 | 0.01744 | 20.1354 | 72.3262 | 4.1279 | 13.91141 | – |
| 2026 Apr 12 17:57 | 2026 Apr 08 01:12:57 | 98.7859 | 0.01745 | 19.9600 | 79.8960 | 4.1279 | 13.91141 | – |
| 2026 Apr 11 17:57 | 2026 Apr 08 01:12:57 | 98.7859 | 0.01745 | 19.9600 | 79.8960 | 4.1279 | 13.91141 | – |
| 2026 Apr 10 17:58 | 2026 Apr 08 01:12:57 | 98.7859 | 0.01745 | 19.9600 | 79.8960 | 4.1279 | 13.91141 | – |
| 2026 Apr 09 18:01 | 2026 Apr 08 01:12:57 | 98.7859 | 0.01745 | 19.9600 | 79.8960 | 4.1279 | 13.91141 | – |
| 2026 Apr 08 17:57 | 2026 Apr 08 01:12:57 | 98.7859 | 0.01745 | 19.9600 | 79.8960 | 4.1279 | 13.91141 | – |
| 2026 Apr 07 17:57 | 2026 Apr 02 07:13:36 | 98.7863 | 0.01744 | 19.5971 | 95.5782 | 4.1279 | 13.91141 | – |
| 2026 Apr 06 17:57 | 2026 Apr 02 07:13:36 | 98.7863 | 0.01744 | 19.5971 | 95.5782 | 4.1279 | 13.91141 | – |